Hicksville, Virginia
Current Conditions -  °F | °C
As of 2:52 AM on Monday 24 Nov 2014 (Local Time) from KBLF Reporting Station
Overcast Overcast  
Wind Chill: 59°   Ceiling: 3600
Heat Index: 59°   Visibility: 10mi
Dew Point: 47°   Wind: 13mph
Humidity: 64%   Direction: 220°SW
Pressure: 29.65"   Gusts: NA
Location:  37.1593°N, 81.1986°W
Report Text: KBLF 240752Z AUTO 22011KT 10SM OVC036 15/08 A2965 RMK AO2 SLP021 T01500083
Loading
Personal Weather Stations






























Interactive Weather Map New forecast layout! Learn more

10-Day Weather Forecast

Advertisements
Track Severe Weather on mobile